createdAt,value
2022-09-23T00:01:12.450Z,94.04
2022-09-23T00:03:42.333Z,93.58
2022-09-23T00:06:11.773Z,93.79
2022-09-23T00:08:39.558Z,93.25
2022-09-23T00:11:09.075Z,94.31
2022-09-23T00:13:38.129Z,95.07
2022-09-23T00:16:06.161Z,95.50
2022-09-23T00:18:35.305Z,94.74
2022-09-23T00:21:04.157Z,94.06
2022-09-23T00:23:31.921Z,94.04
2022-09-23T00:26:00.308Z,94.13
2022-09-23T00:28:27.729Z,94.66
2022-09-23T00:30:55.260Z,94.80
2022-09-23T00:33:22.803Z,95.08
2022-09-23T00:35:51.554Z,96.25
2022-09-23T00:38:21.677Z,95.46
2022-09-23T00:40:49.339Z,96.01
2022-09-23T00:43:17.197Z,96.11
2022-09-23T00:45:48.244Z,96.18
2022-09-23T00:48:18.042Z,96.73
2022-09-23T00:50:52.653Z,96.02
2022-09-23T00:53:22.570Z,95.92
2022-09-23T00:55:52.451Z,95.44
2022-09-23T00:58:22.817Z,94.94
2022-09-23T01:00:50.494Z,95.26
2022-09-23T01:03:18.766Z,95.27
2022-09-23T01:05:46.555Z,95.17
2022-09-23T01:08:15.524Z,95.67
2022-09-23T01:10:48.756Z,95.60
2022-09-23T01:13:21.113Z,95.35
2022-09-23T01:15:51.348Z,95.65
2022-09-23T01:18:26.572Z,95.79
2022-09-23T01:20:59.228Z,96.71
2022-09-23T01:23:44.857Z,96.48
2022-09-23T01:26:21.608Z,96.15
2022-09-23T01:29:07.501Z,96.51
2022-09-23T01:31:39.771Z,96.16
2022-09-23T01:34:11.833Z,95.90
2022-09-23T01:36:42.013Z,96.02
2022-09-23T01:39:12.721Z,96.10
2022-09-23T01:41:47.985Z,96.20
2022-09-23T01:44:20.353Z,96.48
2022-09-23T01:46:53.153Z,96.91
2022-09-23T01:49:23.895Z,96.47
2022-09-23T01:51:54.492Z,97.40
2022-09-23T01:54:26.810Z,97.14
2022-09-23T01:56:59.869Z,97.45
2022-09-23T01:59:32.612Z,97.83
2022-09-23T02:02:04.810Z,97.08
2022-09-23T02:04:39.401Z,97.08
2022-09-23T02:07:10.497Z,96.72
2022-09-23T02:09:40.977Z,96.77
2022-09-23T02:12:12.633Z,96.73
2022-09-23T02:14:43.820Z,97.33
2022-09-23T02:17:14.206Z,97.62
2022-09-23T02:19:46.465Z,97.87
2022-09-23T02:22:16.536Z,97.81
2022-09-23T02:24:44.984Z,97.23
2022-09-23T02:27:18.265Z,97.69
2022-09-23T02:29:50.502Z,97.72
2022-09-23T02:32:22.746Z,97.42
2022-09-23T02:34:57.373Z,97.33
2022-09-23T02:37:28.819Z,97.80
2022-09-23T02:40:01.250Z,98.01
2022-09-23T02:42:35.586Z,97.94
2022-09-23T02:45:03.194Z,97.78
2022-09-23T02:47:33.441Z,97.59
2022-09-23T02:50:00.956Z,98.22
2022-09-23T02:52:28.449Z,98.04
2022-09-23T02:54:56.109Z,98.25
2022-09-23T02:57:23.605Z,97.58
2022-09-23T02:59:51.009Z,97.42
2022-09-23T03:02:39.765Z,96.77
2022-09-23T03:05:12.629Z,96.85
2022-09-23T03:07:47.222Z,96.82
2022-09-23T03:10:19.006Z,96.98
2022-09-23T03:12:52.806Z,96.68
2022-09-23T03:15:26.065Z,97.10
2022-09-23T03:18:00.759Z,97.55
2022-09-23T03:20:34.103Z,97.66
2022-09-23T03:23:04.742Z,97.81
2022-09-23T03:25:35.962Z,98.51
2022-09-23T03:28:04.203Z,98.45
2022-09-23T03:30:35.474Z,98.06
2022-09-23T03:33:05.975Z,98.85
2022-09-23T03:35:55.925Z,99.18
2022-09-23T03:38:26.091Z,99.09
2022-09-23T03:40:55.331Z,98.97
2022-09-23T03:43:22.849Z,98.91
2022-09-23T03:45:54.522Z,98.45
2022-09-23T03:48:23.557Z,98.34
2022-09-23T03:50:50.939Z,98.70
2022-09-23T03:53:21.013Z,98.73
2022-09-23T03:55:48.441Z,98.33
2022-09-23T03:58:15.983Z,98.27
2022-09-23T04:00:45.076Z,98.01
2022-09-23T04:03:12.494Z,97.72
2022-09-23T04:05:41.213Z,97.14
2022-09-23T04:08:08.821Z,97.18
2022-09-23T04:10:36.327Z,97.55
2022-09-23T04:13:03.844Z,97.22
2022-09-23T04:15:31.237Z,97.44
2022-09-23T04:17:58.586Z,97.35
2022-09-23T04:20:29.615Z,97.77
2022-09-23T04:22:58.334Z,97.62
2022-09-23T04:25:25.688Z,97.14
2022-09-23T04:27:53.037Z,96.99
2022-09-23T04:30:20.428Z,97.01
2022-09-23T04:32:47.767Z,96.94
2022-09-23T04:35:15.173Z,97.12
2022-09-23T04:37:42.681Z,96.94
2022-09-23T04:40:11.885Z,97.53
2022-09-23T04:42:39.526Z,96.72
2022-09-23T04:45:07.897Z,96.92
2022-09-23T04:47:35.257Z,96.35
2022-09-23T04:50:02.782Z,96.96
2022-09-23T04:52:32.045Z,96.94
2022-09-23T04:54:59.449Z,96.90
2022-09-23T04:57:29.817Z,97.68
2022-09-23T04:59:57.273Z,96.97
2022-09-23T05:02:25.215Z,97.28
2022-09-23T05:04:52.657Z,96.93
2022-09-23T05:07:20.057Z,96.51
2022-09-23T05:09:47.689Z,96.88
2022-09-23T05:12:15.078Z,96.25
2022-09-23T05:14:43.812Z,96.02
2022-09-23T05:17:11.701Z,96.34
2022-09-23T05:19:39.053Z,96.59
2022-09-23T05:22:06.490Z,97.13
2022-09-23T05:24:33.897Z,97.47
2022-09-23T05:27:01.863Z,97.96
2022-09-23T05:29:29.221Z,97.79
2022-09-23T05:31:58.021Z,97.78
2022-09-23T05:34:25.528Z,97.38
2022-09-23T05:36:53.036Z,96.62
2022-09-23T05:39:20.441Z,96.15
2022-09-23T05:41:48.927Z,95.87
2022-09-23T05:44:16.352Z,96.16
2022-09-23T05:46:43.774Z,95.56
2022-09-23T05:49:12.507Z,96.01
2022-09-23T05:51:40.107Z,95.82
2022-09-23T05:54:08.223Z,95.93
2022-09-23T05:56:37.091Z,96.43
2022-09-23T05:59:05.662Z,97.15
2022-09-23T06:01:35.184Z,96.81
2022-09-23T06:04:04.353Z,97.38
2022-09-23T06:06:34.982Z,98.23
2022-09-23T06:09:03.312Z,98.65
2022-09-23T06:11:31.342Z,98.28
2022-09-23T06:14:00.943Z,97.92
2022-09-23T06:16:29.335Z,97.88
2022-09-23T06:18:58.154Z,97.91
2022-09-23T06:21:28.095Z,97.63
2022-09-23T06:23:57.310Z,98.33
2022-09-23T06:26:24.915Z,98.28
2022-09-23T06:28:52.460Z,98.56
2022-09-23T06:31:19.968Z,98.64
2022-09-23T06:33:47.441Z,98.73
2022-09-23T06:36:27.798Z,98.79
2022-09-23T06:39:03.371Z,98.29
2022-09-23T06:41:30.849Z,98.24
2022-09-23T06:43:58.956Z,95.58
2022-09-23T06:46:26.311Z,93.26
2022-09-23T06:48:53.693Z,90.21
2022-09-23T06:51:21.598Z,89.28
2022-09-23T06:53:49.795Z,85.23
2022-09-23T06:56:19.746Z,82.46
2022-09-23T06:58:47.379Z,81.11
2022-09-23T07:01:17.182Z,78.79
2022-09-23T07:03:45.245Z,77.67
2022-09-23T07:06:12.691Z,76.56
2022-09-23T07:08:43.834Z,75.80
2022-09-23T07:11:13.076Z,74.50
2022-09-23T07:13:44.822Z,74.76
2022-09-23T07:16:12.744Z,74.52
2022-09-23T07:18:41.237Z,74.20
2022-09-23T07:21:10.289Z,72.42
2022-09-23T07:23:38.751Z,72.93
2022-09-23T07:26:07.729Z,70.75
2022-09-23T07:28:36.949Z,72.48
2022-09-23T07:33:34.596Z,71.79
2022-09-23T07:36:05.712Z,72.57
2022-09-23T07:38:33.122Z,72.38
2022-09-23T07:41:06.440Z,70.88
2022-09-23T07:43:33.929Z,70.63
2022-09-23T07:46:02.146Z,69.49
2022-09-23T07:48:34.080Z,66.61
2022-09-23T07:51:07.613Z,66.22
2022-09-23T07:53:35.657Z,66.07
2022-09-23T07:56:06.363Z,65.79
2022-09-23T07:58:34.826Z,63.58
2022-09-23T08:01:03.638Z,63.45
2022-09-23T08:03:31.029Z,65.71
2022-09-23T08:06:06.505Z,65.77
2022-09-23T08:08:34.262Z,68.00
2022-09-23T08:11:03.390Z,67.64
2022-09-23T08:13:31.240Z,70.72
2022-09-23T08:15:59.185Z,68.73
2022-09-23T08:18:26.849Z,70.90
2022-09-23T08:20:54.349Z,69.83
2022-09-23T08:23:23.163Z,66.13
2022-09-23T08:25:59.552Z,65.37
2022-09-23T08:28:28.975Z,64.93
2022-09-23T08:30:56.927Z,64.51
2022-09-23T08:33:25.153Z,67.37
2022-09-23T08:35:53.055Z,61.85
2022-09-23T08:38:20.847Z,57.98
2022-09-23T08:40:50.470Z,56.59
2022-09-23T08:43:27.507Z,60.63
2022-09-23T08:45:56.587Z,59.46
2022-09-23T08:48:29.274Z,57.11
2022-09-23T08:51:00.788Z,57.77
2022-09-23T08:53:29.901Z,61.20
2022-09-23T08:55:59.979Z,56.00
2022-09-23T08:58:37.823Z,59.36
2022-09-23T09:01:14.026Z,55.12
2022-09-23T09:03:45.697Z,58.78
2022-09-23T09:06:17.738Z,57.27
2022-09-23T09:08:50.132Z,56.38
2022-09-23T09:11:19.830Z,53.79
2022-09-23T09:13:54.779Z,54.92
2022-09-23T09:16:58.940Z,57.23
2022-09-23T09:19:40.573Z,55.75
2022-09-23T09:22:09.204Z,55.59
2022-09-23T09:24:36.870Z,53.52
2022-09-23T09:27:12.263Z,54.59
2022-09-23T09:29:43.370Z,50.55
2022-09-23T09:32:17.734Z,52.83
2022-09-23T09:34:48.652Z,50.79
2022-09-23T09:37:19.957Z,48.94
2022-09-23T09:39:47.490Z,51.32
2022-09-23T09:42:20.179Z,56.83
2022-09-23T09:44:52.657Z,51.45
2022-09-23T09:47:31.898Z,54.74
2022-09-23T09:50:06.586Z,56.95
2022-09-23T09:52:34.141Z,56.02
2022-09-23T09:55:23.522Z,56.02
2022-09-23T09:57:54.243Z,57.36
2022-09-23T10:00:43.879Z,58.68
2022-09-23T10:03:33.130Z,56.03
2022-09-23T10:06:00.589Z,54.81
2022-09-23T10:08:32.207Z,53.26
2022-09-23T10:11:03.085Z,53.88
2022-09-23T10:13:32.559Z,50.48
2022-09-23T10:16:03.974Z,51.57
2022-09-23T10:18:32.790Z,52.34
2022-09-23T10:21:08.535Z,53.51
2022-09-23T10:23:40.276Z,46.80
2022-09-23T10:26:10.180Z,48.43
2022-09-23T10:28:50.209Z,44.85
2022-09-23T10:31:24.934Z,49.02
2022-09-23T10:33:54.579Z,48.59
2022-09-23T10:36:22.378Z,48.41
2022-09-23T10:38:51.232Z,46.47
2022-09-23T10:41:46.904Z,49.68
2022-09-23T10:44:41.993Z,49.27
2022-09-23T10:47:17.873Z,48.54
2022-09-23T10:50:11.119Z,48.41
2022-09-23T10:52:46.035Z,45.84
2022-09-23T10:55:23.970Z,44.55
2022-09-23T10:57:59.789Z,46.97
2022-09-23T11:00:36.182Z,47.52
2022-09-23T11:03:36.484Z,51.13
2022-09-23T11:06:13.090Z,50.26
2022-09-23T11:08:52.958Z,49.56
2022-09-23T11:11:29.979Z,49.60
2022-09-23T11:14:06.595Z,50.87
2022-09-23T11:16:42.697Z,51.03
2022-09-23T11:19:23.217Z,48.52
2022-09-23T11:22:00.746Z,47.79
2022-09-23T11:24:40.206Z,51.38
2022-09-23T11:27:13.113Z,51.02
2022-09-23T11:30:03.258Z,45.81
2022-09-23T11:35:39.030Z,45.99
2022-09-23T11:38:10.241Z,49.57
2022-09-23T11:40:42.377Z,53.15
2022-09-23T11:43:18.437Z,48.46
2022-09-23T11:45:48.989Z,50.81
2022-09-23T11:48:19.773Z,46.32
2022-09-23T11:50:49.942Z,46.96
2022-09-23T11:53:22.380Z,48.10
2022-09-23T11:55:58.216Z,46.92
2022-09-23T11:58:29.310Z,48.21
2022-09-23T12:01:01.507Z,49.55
2022-09-23T12:03:44.053Z,46.08
2022-09-23T12:06:15.711Z,46.09
2022-09-23T12:08:43.680Z,48.73
2022-09-23T12:11:21.066Z,48.81
2022-09-23T12:13:52.686Z,47.31
2022-09-23T12:16:36.480Z,48.84
2022-09-23T12:19:13.189Z,48.89
2022-09-23T12:21:59.191Z,48.39
2022-09-23T12:24:48.793Z,51.58
2022-09-23T12:27:24.100Z,47.45
2022-09-23T12:29:54.451Z,50.30
2022-09-23T12:32:22.330Z,48.37
2022-09-23T12:34:52.069Z,47.71
2022-09-23T12:37:29.028Z,47.03
2022-09-23T12:40:01.601Z,45.08
2022-09-23T12:42:31.281Z,47.63
2022-09-23T12:45:19.172Z,48.43
2022-09-23T12:47:46.810Z,49.72
2022-09-23T12:50:51.793Z,47.51
2022-09-23T12:53:56.188Z,46.07
2022-09-23T12:56:27.385Z,44.70
2022-09-23T12:59:04.606Z,42.72
2022-09-23T13:01:38.077Z,43.12
2022-09-23T13:04:23.628Z,45.53
2022-09-23T13:06:57.969Z,46.76
2022-09-23T13:09:29.301Z,46.18
2022-09-23T13:11:59.862Z,47.52
2022-09-23T13:14:28.894Z,48.93
2022-09-23T13:16:58.294Z,47.95
2022-09-23T13:19:46.260Z,47.23
2022-09-23T13:22:15.156Z,47.57
2022-09-23T13:24:47.452Z,45.53
2022-09-23T13:27:26.453Z,42.95
2022-09-23T13:29:58.947Z,48.42
2022-09-23T13:32:31.581Z,47.93
2022-09-23T13:35:01.994Z,43.12
2022-09-23T13:37:40.357Z,45.87
2022-09-23T13:40:18.578Z,44.80
2022-09-23T13:42:49.416Z,42.51
2022-09-23T13:45:18.848Z,44.22
2022-09-23T13:47:47.406Z,44.18
2022-09-23T13:50:18.442Z,40.44
2022-09-23T13:52:49.499Z,43.66
2022-09-23T13:55:30.890Z,42.75
2022-09-23T13:58:02.127Z,44.68
2022-09-23T14:00:36.126Z,44.70
2022-09-23T14:03:06.246Z,45.15
2022-09-23T14:05:35.718Z,47.29
2022-09-23T14:08:04.657Z,49.91
2022-09-23T14:10:32.373Z,46.11
2022-09-23T14:12:59.847Z,46.76
2022-09-23T14:15:27.452Z,45.12
2022-09-23T14:18:02.321Z,49.66
2022-09-23T14:20:29.689Z,46.87
2022-09-23T14:23:10.618Z,49.60
2022-09-23T14:25:38.586Z,45.23
2022-09-23T14:28:06.065Z,45.55
2022-09-23T14:30:34.050Z,47.81
2022-09-23T14:33:05.558Z,50.36
2022-09-23T14:35:43.448Z,49.58
2022-09-23T14:38:29.958Z,48.79
2022-09-23T14:41:12.835Z,50.78
2022-09-23T14:43:40.323Z,51.33
2022-09-23T14:46:17.804Z,48.57
2022-09-23T14:48:45.762Z,51.49
2022-09-23T14:51:17.087Z,54.63
2022-09-23T14:53:46.856Z,50.73
2022-09-23T14:56:17.450Z,53.36
2022-09-23T14:58:52.345Z,52.96
2022-09-23T15:01:38.460Z,54.95
2022-09-23T15:04:17.388Z,53.88
2022-09-23T15:06:49.135Z,52.42
2022-09-23T15:09:25.961Z,54.98
2022-09-23T15:11:54.362Z,51.50
2022-09-23T15:14:37.226Z,53.65
2022-09-23T15:17:12.533Z,51.69
2022-09-23T15:19:40.392Z,53.09
2022-09-23T15:22:08.425Z,54.30
2022-09-23T15:24:42.130Z,52.26
2022-09-23T15:27:28.060Z,53.63
2022-09-23T15:29:56.161Z,51.81
2022-09-23T15:32:23.638Z,48.45
2022-09-23T15:34:51.484Z,50.40
2022-09-23T15:37:18.885Z,49.37
2022-09-23T15:39:48.120Z,51.83
2022-09-23T15:42:16.307Z,54.07
2022-09-23T15:44:43.701Z,54.65
2022-09-23T15:47:14.272Z,54.79
2022-09-23T15:49:41.711Z,54.19
2022-09-23T15:52:12.174Z,53.49
2022-09-23T15:54:39.781Z,53.37
2022-09-23T15:57:08.497Z,53.67
2022-09-23T15:59:38.072Z,55.86
2022-09-23T16:02:15.578Z,55.67
2022-09-23T16:04:50.209Z,58.76
2022-09-23T16:07:19.616Z,58.90
2022-09-23T16:09:47.132Z,58.04
2022-09-23T16:12:15.890Z,60.04
2022-09-23T16:14:43.416Z,60.88
2022-09-23T16:17:13.747Z,61.92
2022-09-23T16:19:41.149Z,61.88
2022-09-23T16:22:08.675Z,62.88
2022-09-23T16:24:36.414Z,63.28
2022-09-23T16:27:05.938Z,66.16
2022-09-23T16:29:34.683Z,66.28
2022-09-23T16:32:03.038Z,67.02
2022-09-23T16:34:30.444Z,65.72
2022-09-23T16:36:57.965Z,66.33
2022-09-23T16:39:25.395Z,66.59
2022-09-23T16:41:52.804Z,68.11
2022-09-23T16:44:21.067Z,69.28
2022-09-23T16:46:51.002Z,70.86
2022-09-23T16:49:18.442Z,71.62
2022-09-23T16:51:45.866Z,73.24
2022-09-23T16:54:14.163Z,73.64
2022-09-23T16:56:44.212Z,74.17
2022-09-23T16:59:12.514Z,75.89
2022-09-23T17:01:57.685Z,76.04
2022-09-23T17:04:27.536Z,76.76
2022-09-23T17:06:55.942Z,76.52
2022-09-23T17:09:27.456Z,76.74
2022-09-23T17:11:59.718Z,76.94
2022-09-23T17:14:27.845Z,78.12
2022-09-23T17:16:55.289Z,78.48
2022-09-23T17:19:25.487Z,78.33
2022-09-23T17:21:55.051Z,78.79
2022-09-23T17:24:22.568Z,78.91
2022-09-23T17:26:53.041Z,79.66
2022-09-23T17:29:20.959Z,80.51
2022-09-23T17:31:48.409Z,80.78
2022-09-23T17:34:18.635Z,80.34
2022-09-23T17:36:46.389Z,80.42
2022-09-23T17:39:15.153Z,80.17
2022-09-23T17:41:43.153Z,79.96
2022-09-23T17:44:11.270Z,79.67
2022-09-23T17:46:38.909Z,79.58
2022-09-23T17:49:09.466Z,79.50
2022-09-23T17:51:39.869Z,80.74
2022-09-23T17:54:07.367Z,81.21
2022-09-23T17:56:36.201Z,81.41
2022-09-23T17:59:03.781Z,81.84
2022-09-23T18:01:31.812Z,81.38
2022-09-23T18:04:00.775Z,81.43
2022-09-23T18:06:31.469Z,81.93
2022-09-23T18:09:01.164Z,83.24
2022-09-23T18:11:30.184Z,82.64
2022-09-23T18:14:00.757Z,83.15
2022-09-23T18:16:29.988Z,84.19
2022-09-23T18:18:59.218Z,84.99
2022-09-23T18:21:28.176Z,84.63
2022-09-23T18:23:59.805Z,85.56
2022-09-23T18:26:34.576Z,85.64
2022-09-23T18:29:03.530Z,84.81
2022-09-23T18:31:35.114Z,85.42
2022-09-23T18:34:04.060Z,86.40
2022-09-23T18:36:32.117Z,86.08
2022-09-23T18:38:59.979Z,86.14
2022-09-23T18:41:27.918Z,85.86
2022-09-23T18:43:55.518Z,84.40
2022-09-23T18:46:25.554Z,83.51
2022-09-23T18:49:11.107Z,83.42
2022-09-23T18:51:47.557Z,83.75
2022-09-23T18:54:15.936Z,83.45
2022-09-23T18:56:44.605Z,83.34
2022-09-23T18:59:14.363Z,83.34
2022-09-23T19:01:43.878Z,82.82
2022-09-23T19:04:11.447Z,82.48
2022-09-23T19:06:38.841Z,83.13
2022-09-23T19:09:07.286Z,84.77
2022-09-23T19:11:36.100Z,84.79
2022-09-23T19:14:05.073Z,84.42
2022-09-23T19:16:32.584Z,85.42
2022-09-23T19:19:02.007Z,85.15
2022-09-23T19:21:30.482Z,85.41
2022-09-23T19:24:03.032Z,85.58
2022-09-23T19:26:32.293Z,85.63
2022-09-23T19:29:00.996Z,85.42
2022-09-23T19:31:30.041Z,84.95
2022-09-23T19:33:59.139Z,84.90
2022-09-23T19:36:30.021Z,84.59
2022-09-23T19:38:58.937Z,85.25
2022-09-23T19:41:28.168Z,85.74
2022-09-23T19:43:58.519Z,85.03
2022-09-23T19:46:25.973Z,84.89
2022-09-23T19:48:53.393Z,85.53
2022-09-23T19:51:20.871Z,84.74
2022-09-23T19:53:50.275Z,84.77
2022-09-23T19:56:18.214Z,84.52
2022-09-23T19:58:47.144Z,84.22
2022-09-23T20:01:16.196Z,84.01
2022-09-23T20:03:44.214Z,84.55
2022-09-23T20:06:11.986Z,84.89
2022-09-23T20:08:39.643Z,84.66
2022-09-23T20:11:11.034Z,84.27
2022-09-23T20:13:39.257Z,84.64
2022-09-23T20:16:10.338Z,84.70
2022-09-23T20:18:38.346Z,84.71
2022-09-23T20:21:06.075Z,85.18
2022-09-23T20:23:33.472Z,86.05
2022-09-23T20:26:20.013Z,86.04
2022-09-23T20:28:49.339Z,86.08
2022-09-23T20:31:17.902Z,86.23
2022-09-23T20:33:46.053Z,85.69
2022-09-23T20:36:13.850Z,85.64
2022-09-23T20:38:41.404Z,85.28
2022-09-23T20:41:09.284Z,85.54
2022-09-23T20:43:36.822Z,86.10
2022-09-23T20:46:06.120Z,87.50
2022-09-23T20:48:33.703Z,87.52
2022-09-23T20:51:01.966Z,86.88
2022-09-23T20:53:29.371Z,86.92
2022-09-23T20:55:58.203Z,87.41
2022-09-23T20:58:26.918Z,87.56
2022-09-23T21:00:54.532Z,88.34
2022-09-23T21:03:24.039Z,88.20
2022-09-23T21:05:51.757Z,88.01
2022-09-23T21:08:19.300Z,87.94
2022-09-23T21:10:54.419Z,88.38
2022-09-23T21:13:21.891Z,87.10
2022-09-23T21:15:49.321Z,86.76
2022-09-23T21:18:21.695Z,86.74
2022-09-23T21:20:57.528Z,85.98
2022-09-23T21:23:26.975Z,85.78
2022-09-23T21:26:01.406Z,84.56
2022-09-23T21:28:32.774Z,85.51
2022-09-23T21:31:00.893Z,82.98
2022-09-23T21:33:28.389Z,83.55
2022-09-23T21:35:57.699Z,81.94
2022-09-23T21:38:25.403Z,80.31
2022-09-23T21:41:00.730Z,81.87
2022-09-23T21:43:29.481Z,82.26
2022-09-23T21:45:59.494Z,80.69
2022-09-23T21:48:31.089Z,81.35
2022-09-23T21:51:02.057Z,82.21
2022-09-23T21:53:30.879Z,79.98
2022-09-23T21:56:03.326Z,80.94
2022-09-23T21:58:31.319Z,79.84
2022-09-23T22:00:59.030Z,79.18
2022-09-23T22:03:26.579Z,80.11
2022-09-23T22:06:04.115Z,80.76
2022-09-23T22:08:34.718Z,80.07
2022-09-23T22:11:02.799Z,79.50
2022-09-23T22:13:30.277Z,78.82
2022-09-23T22:16:01.335Z,78.82
2022-09-23T22:18:29.147Z,78.46
2022-09-23T22:20:57.728Z,78.48
2022-09-23T22:23:26.494Z,78.95
2022-09-23T22:26:02.831Z,79.18
2022-09-23T22:28:50.813Z,79.87
2022-09-23T22:31:36.038Z,82.68
2022-09-23T22:34:03.681Z,82.40
2022-09-23T22:36:31.342Z,82.36
2022-09-23T22:39:02.947Z,83.04
2022-09-23T22:41:31.352Z,83.84
2022-09-23T22:44:00.164Z,84.99
2022-09-23T22:46:27.970Z,84.65
2022-09-23T22:48:55.397Z,85.23
2022-09-23T22:51:23.803Z,86.20
2022-09-23T22:53:52.628Z,86.12
2022-09-23T22:56:21.475Z,86.32
2022-09-23T22:58:48.899Z,85.84
2022-09-23T23:01:16.361Z,86.79
2022-09-23T23:03:45.612Z,87.94
2022-09-23T23:06:13.023Z,87.99
2022-09-23T23:08:40.522Z,87.91
2022-09-23T23:11:09.897Z,88.28
2022-09-23T23:13:41.709Z,89.36
2022-09-23T23:16:11.607Z,89.42
2022-09-23T23:18:40.865Z,89.27
2022-09-23T23:21:09.963Z,89.27
2022-09-23T23:23:39.285Z,89.88
2022-09-23T23:26:11.843Z,89.84
2022-09-23T23:28:41.052Z,89.46
2022-09-23T23:31:09.755Z,89.04
2022-09-23T23:33:37.539Z,88.91
2022-09-23T23:36:05.994Z,88.65
2022-09-23T23:38:34.913Z,89.21
2022-09-23T23:41:03.024Z,89.08
2022-09-23T23:43:30.496Z,88.65
2022-09-23T23:46:00.272Z,86.92
2022-09-23T23:48:28.874Z,84.68
2022-09-23T23:50:56.904Z,83.91
2022-09-23T23:53:24.485Z,83.99
2022-09-23T23:55:52.262Z,84.32
2022-09-23T23:58:19.640Z,84.52
